Shafer, Minnesota
Current Conditions -  °F | °C
As of 7:35 PM on Wednesday 22 Oct 2014 (Local Time) from KOEO Reporting Station
Scattered Clouds Scattered Clouds  
Wind Chill: 55°   Ceiling: Unl
Heat Index: 55°   Visibility: 10mi
Dew Point: 39°   Wind: 8mph
Humidity: 56%   Direction: 130°SE
Pressure: 30.09"   Gusts: NA
Location:  45.39°N, 92.75°W
Report Text: KOEO 230035Z AUTO 13007KT 110V170 10SM SCT070 SCT110 13/04 A3009 RMK AO2 T01250038
Loading
Personal Weather Stations






























Interactive Weather Map
Tropical Storm Tracking
New forecast layout! Learn more

10-Day Weather Forecast

Advertisements
Track Severe Weather on mobile